createdAt,value
2023-03-16T00:00:49.920Z,19.90
2023-03-16T00:03:20.778Z,20.40
2023-03-16T00:05:53.461Z,21.30
2023-03-16T00:08:21.129Z,20.50
2023-03-16T00:10:48.732Z,20.20
2023-03-16T00:13:17.742Z,20.50
2023-03-16T00:15:52.663Z,20.90
2023-03-16T00:18:21.147Z,21.30
2023-03-16T00:20:56.784Z,19.40
2023-03-16T00:23:27.747Z,22.60
2023-03-16T00:25:58.571Z,23.10
2023-03-16T00:28:27.569Z,19.90
2023-03-16T00:30:59.238Z,23.80
2023-03-16T00:33:27.521Z,20.30
2023-03-16T00:36:02.548Z,19.80
2023-03-16T00:38:34.781Z,19.50
2023-03-16T00:41:04.277Z,18.50
2023-03-16T00:43:40.741Z,17.80
2023-03-16T00:46:11.800Z,18.60
2023-03-16T00:48:43.493Z,18.00
2023-03-16T00:51:14.852Z,18.90
2023-03-16T00:53:43.959Z,17.80
2023-03-16T00:56:12.603Z,18.70
2023-03-16T00:58:43.256Z,19.10
2023-03-16T01:01:15.233Z,18.40
2023-03-16T01:03:43.708Z,18.00
2023-03-16T01:06:15.435Z,17.10
2023-03-16T01:08:43.830Z,17.70
2023-03-16T01:11:20.581Z,17.10
2023-03-16T01:13:49.604Z,17.50
2023-03-16T01:16:19.053Z,16.80
2023-03-16T01:18:47.765Z,16.20
2023-03-16T01:21:15.756Z,16.50
2023-03-16T01:23:44.359Z,16.10
2023-03-16T01:26:15.243Z,16.30
2023-03-16T01:28:44.360Z,15.80
2023-03-16T01:31:14.294Z,16.00
2023-03-16T01:33:43.402Z,16.00
2023-03-16T01:36:18.632Z,16.20
2023-03-16T01:38:56.343Z,15.60
2023-03-16T01:41:27.216Z,15.00
2023-03-16T01:43:58.299Z,15.80
2023-03-16T01:46:28.308Z,15.90
2023-03-16T01:49:25.541Z,15.30
2023-03-16T01:52:00.911Z,16.70
2023-03-16T01:54:49.663Z,16.20
2023-03-16T01:57:23.093Z,15.80
2023-03-16T01:59:55.577Z,16.10
2023-03-16T02:02:26.065Z,17.00
2023-03-16T02:05:13.430Z,16.50
2023-03-16T02:07:44.879Z,15.40
2023-03-16T02:10:15.406Z,16.10
2023-03-16T02:12:43.184Z,16.20
2023-03-16T02:15:14.016Z,16.10
2023-03-16T02:17:43.589Z,15.70
2023-03-16T02:20:42.853Z,14.50
2023-03-16T02:23:18.794Z,15.00
2023-03-16T02:26:26.219Z,16.00
2023-03-16T02:29:12.953Z,14.70
2023-03-16T02:31:40.940Z,15.60
2023-03-16T02:34:09.666Z,15.70
2023-03-16T02:36:39.072Z,16.50
2023-03-16T02:39:07.125Z,16.80
2023-03-16T02:41:42.785Z,15.10
2023-03-16T02:44:17.346Z,16.40
2023-03-16T02:46:46.630Z,16.50
2023-03-16T02:49:32.837Z,16.80
2023-03-16T02:52:00.693Z,16.70
2023-03-16T02:54:28.694Z,17.50
2023-03-16T02:56:56.401Z,16.50
2023-03-16T02:59:25.468Z,17.00
2023-03-16T03:01:53.295Z,17.50
2023-03-16T03:04:23.468Z,16.90
2023-03-16T03:06:51.882Z,18.00
2023-03-16T03:09:20.851Z,18.50
2023-03-16T03:11:50.769Z,17.40
2023-03-16T03:14:18.529Z,18.40
2023-03-16T03:16:47.129Z,17.50
2023-03-16T03:19:15.625Z,18.20
2023-03-16T03:21:43.431Z,19.10
2023-03-16T03:24:11.110Z,18.40
2023-03-16T03:26:38.910Z,18.60
2023-03-16T03:29:08.614Z,18.40
2023-03-16T03:31:36.454Z,18.20
2023-03-16T03:34:06.706Z,16.90
2023-03-16T03:36:36.150Z,18.70
2023-03-16T03:39:05.269Z,18.00
2023-03-16T03:41:33.658Z,17.90
2023-03-16T03:44:02.495Z,16.30
2023-03-16T03:46:30.411Z,16.90
2023-03-16T03:49:03.679Z,17.00
2023-03-16T03:51:33.317Z,17.60
2023-03-16T03:54:08.368Z,17.20
2023-03-16T03:56:49.148Z,18.20
2023-03-16T03:59:17.591Z,18.20
2023-03-16T04:02:09.932Z,19.20
2023-03-16T04:04:42.516Z,19.30
2023-03-16T04:07:11.563Z,19.80
2023-03-16T04:09:39.689Z,19.50
2023-03-16T04:12:08.080Z,19.10
2023-03-16T04:14:35.839Z,19.50
2023-03-16T04:17:05.910Z,18.30
2023-03-16T04:19:34.784Z,17.90
2023-03-16T04:22:03.397Z,18.50
2023-03-16T04:24:34.279Z,20.60
2023-03-16T04:27:03.135Z,19.60
2023-03-16T04:29:32.024Z,20.50
2023-03-16T04:31:59.979Z,20.50
2023-03-16T04:34:28.055Z,22.00
2023-03-16T04:36:57.768Z,22.20
2023-03-16T04:39:25.607Z,21.30
2023-03-16T04:41:55.356Z,22.10
2023-03-16T04:44:27.060Z,21.30
2023-03-16T04:46:54.687Z,23.40
2023-03-16T04:49:23.136Z,23.30
2023-03-16T04:51:50.931Z,24.00
2023-03-16T04:54:20.345Z,23.90
2023-03-16T04:56:49.125Z,24.70
2023-03-16T04:59:37.017Z,23.90
2023-03-16T05:02:27.618Z,24.50
2023-03-16T05:04:59.170Z,26.10
2023-03-16T05:07:26.876Z,28.20
2023-03-16T05:09:55.836Z,28.50
2023-03-16T05:12:23.612Z,29.90
2023-03-16T05:14:54.809Z,29.50
2023-03-16T05:17:33.617Z,29.90
2023-03-16T05:20:01.647Z,30.20
2023-03-16T05:22:29.692Z,31.30
2023-03-16T05:25:20.753Z,29.90
2023-03-16T05:27:53.932Z,31.10
2023-03-16T05:30:28.446Z,32.50
2023-03-16T05:32:57.967Z,31.70
2023-03-16T05:35:28.027Z,33.40
2023-03-16T05:37:59.234Z,33.20
2023-03-16T05:40:28.367Z,33.00
2023-03-16T05:43:04.800Z,34.10
2023-03-16T05:45:34.796Z,33.90
2023-03-16T05:48:12.990Z,35.90
2023-03-16T05:50:44.752Z,34.60
2023-03-16T05:53:13.962Z,33.20
2023-03-16T05:55:41.820Z,31.80
2023-03-16T05:58:11.958Z,34.30
2023-03-16T06:00:40.647Z,35.60
2023-03-16T06:03:17.179Z,34.90
2023-03-16T06:05:45.308Z,34.00
2023-03-16T06:08:13.051Z,36.00
2023-03-16T06:10:42.674Z,34.10
2023-03-16T06:13:16.558Z,35.40
2023-03-16T06:15:47.086Z,35.10
2023-03-16T06:18:14.967Z,34.50
2023-03-16T06:20:43.719Z,35.60
2023-03-16T06:23:11.493Z,34.60
2023-03-16T06:25:40.805Z,33.20
2023-03-16T06:28:09.253Z,33.30
2023-03-16T06:30:36.842Z,33.20
2023-03-16T06:33:04.558Z,32.30
2023-03-16T06:35:32.438Z,30.90
2023-03-16T06:38:12.739Z,31.20
2023-03-16T06:40:58.929Z,30.90
2023-03-16T06:43:27.218Z,30.10
2023-03-16T06:45:55.209Z,30.10
2023-03-16T06:48:23.603Z,28.30
2023-03-16T06:50:51.601Z,28.60
2023-03-16T06:53:25.899Z,26.00
2023-03-16T06:55:54.072Z,25.80
2023-03-16T06:58:22.031Z,26.50
2023-03-16T07:00:49.959Z,22.50
2023-03-16T07:03:19.350Z,23.50
2023-03-16T07:05:51.653Z,21.00
2023-03-16T07:08:20.036Z,22.50
2023-03-16T07:10:51.562Z,24.70
2023-03-16T07:13:20.406Z,21.60
2023-03-16T07:15:52.222Z,22.90
2023-03-16T07:18:21.793Z,23.50
2023-03-16T07:20:54.610Z,21.20
2023-03-16T07:23:24.938Z,22.10
2023-03-16T07:25:54.653Z,22.10
2023-03-16T07:28:24.601Z,22.90
2023-03-16T07:31:03.271Z,20.90
2023-03-16T07:33:52.128Z,22.60
2023-03-16T07:36:32.290Z,21.10
2023-03-16T07:39:03.391Z,20.40
2023-03-16T07:41:32.852Z,20.30
2023-03-16T07:44:15.603Z,22.90
2023-03-16T07:46:46.486Z,18.00
2023-03-16T07:49:16.618Z,18.00
2023-03-16T07:51:46.161Z,18.70
2023-03-16T07:54:18.903Z,19.80
2023-03-16T07:56:49.542Z,19.30
2023-03-16T07:59:31.321Z,22.10
2023-03-16T08:02:01.882Z,22.00
2023-03-16T08:04:31.277Z,23.50
2023-03-16T08:07:03.992Z,21.50
2023-03-16T08:09:44.710Z,20.20
2023-03-16T08:12:16.168Z,18.80
2023-03-16T08:14:46.590Z,20.40
2023-03-16T08:17:37.787Z,16.80
2023-03-16T08:20:12.732Z,14.50
2023-03-16T08:22:42.548Z,15.40
2023-03-16T08:25:10.816Z,13.80
2023-03-16T08:27:40.254Z,13.60
2023-03-16T08:30:11.636Z,14.00
2023-03-16T08:32:44.821Z,12.80
2023-03-16T08:35:14.975Z,14.30
2023-03-16T08:37:43.696Z,12.60
2023-03-16T08:40:15.833Z,11.90
2023-03-16T08:42:45.703Z,11.30
2023-03-16T08:45:17.419Z,10.00
2023-03-16T08:47:45.592Z,9.30
2023-03-16T08:50:15.691Z,10.30
2023-03-16T08:52:44.106Z,9.50
2023-03-16T08:55:15.566Z,10.60
2023-03-16T08:57:46.343Z,10.60
2023-03-16T09:00:17.953Z,8.10
2023-03-16T09:02:46.981Z,8.50
2023-03-16T09:05:19.354Z,9.00
2023-03-16T09:07:49.205Z,9.40
2023-03-16T09:10:19.777Z,10.90
2023-03-16T09:12:47.805Z,9.70
2023-03-16T09:15:19.588Z,9.40
2023-03-16T09:17:48.922Z,8.70
2023-03-16T09:20:22.642Z,10.60
2023-03-16T09:22:55.548Z,9.70
2023-03-16T09:25:25.478Z,11.30
2023-03-16T09:27:59.315Z,12.70
2023-03-16T09:30:28.746Z,11.80
2023-03-16T09:32:59.561Z,8.70
2023-03-16T09:35:28.297Z,8.40
2023-03-16T09:38:06.554Z,7.40
2023-03-16T09:40:36.798Z,8.30
2023-03-16T09:43:29.629Z,9.30
2023-03-16T09:46:06.362Z,9.50
2023-03-16T09:48:39.918Z,9.50
2023-03-16T09:51:17.529Z,9.70
2023-03-16T09:53:50.468Z,10.00
2023-03-16T09:56:30.992Z,12.00
2023-03-16T09:58:59.398Z,10.80
2023-03-16T10:01:49.761Z,11.40
2023-03-16T10:04:37.913Z,10.90
2023-03-16T10:07:22.133Z,8.60
2023-03-16T10:10:35.176Z,7.50
2023-03-16T10:13:17.689Z,6.90
2023-03-16T10:15:49.460Z,6.80
2023-03-16T10:18:27.308Z,8.20
2023-03-16T10:20:56.508Z,9.20
2023-03-16T10:23:25.983Z,8.90
2023-03-16T10:25:56.460Z,8.40
2023-03-16T10:28:37.708Z,7.80
2023-03-16T10:31:10.742Z,7.90
2023-03-16T10:33:39.682Z,8.30
2023-03-16T10:36:23.272Z,6.60
2023-03-16T10:38:55.385Z,6.20
2023-03-16T10:41:34.337Z,6.40
2023-03-16T10:44:11.972Z,6.00
2023-03-16T10:46:44.152Z,5.80
2023-03-16T10:49:42.057Z,5.40
2023-03-16T10:52:19.699Z,5.80
2023-03-16T10:54:51.549Z,6.60
2023-03-16T10:57:21.027Z,8.00
2023-03-16T10:59:51.437Z,6.60
2023-03-16T11:02:24.976Z,4.70
2023-03-16T11:05:19.557Z,5.30
2023-03-16T11:07:58.631Z,4.80
2023-03-16T11:10:33.314Z,5.60
2023-03-16T11:13:06.497Z,4.70
2023-03-16T11:16:06.970Z,4.70
2023-03-16T11:18:39.284Z,4.30
2023-03-16T11:21:17.317Z,4.60
2023-03-16T11:23:49.780Z,4.00
2023-03-16T11:26:29.169Z,4.60
2023-03-16T11:29:09.762Z,4.10
2023-03-16T11:32:03.565Z,2.90
2023-03-16T11:34:34.269Z,3.80
2023-03-16T11:37:25.692Z,3.20
2023-03-16T11:39:56.407Z,2.70
2023-03-16T11:42:31.156Z,3.20
2023-03-16T11:45:27.486Z,2.70
2023-03-16T11:48:20.401Z,2.80
2023-03-16T11:51:19.886Z,2.50
2023-03-16T11:54:09.651Z,2.60
2023-03-16T11:56:48.217Z,2.80
2023-03-16T12:00:01.990Z,3.10
2023-03-16T12:02:58.687Z,2.80
2023-03-16T12:05:55.239Z,2.50
2023-03-16T12:08:45.009Z,2.50
2023-03-16T12:11:28.831Z,2.90
2023-03-16T12:14:22.733Z,3.00
2023-03-16T12:16:57.292Z,3.00
2023-03-16T12:19:41.826Z,2.70
2023-03-16T12:22:27.134Z,2.70
2023-03-16T12:24:59.038Z,2.90
2023-03-16T12:27:36.509Z,3.00
2023-03-16T12:30:49.083Z,3.20
2023-03-16T12:33:23.438Z,3.60
2023-03-16T12:35:57.149Z,3.30
2023-03-16T12:38:43.554Z,3.40
2023-03-16T12:41:18.005Z,3.00
2023-03-16T12:43:59.657Z,2.80
2023-03-16T12:46:39.538Z,3.30
2023-03-16T12:49:19.695Z,3.20
2023-03-16T12:52:01.612Z,3.10
2023-03-16T12:54:33.463Z,4.60
2023-03-16T12:57:05.102Z,3.60
2023-03-16T12:59:43.009Z,3.10
2023-03-16T13:02:22.737Z,4.10
2023-03-16T13:05:01.210Z,4.60
2023-03-16T13:07:31.265Z,4.40
2023-03-16T13:10:10.265Z,2.80
2023-03-16T13:12:41.743Z,2.80
2023-03-16T13:15:25.470Z,3.30
2023-03-16T13:18:21.745Z,2.60
2023-03-16T13:21:20.391Z,3.10
2023-03-16T13:24:21.636Z,3.40
2023-03-16T13:26:52.961Z,2.90
2023-03-16T13:29:23.810Z,3.10
2023-03-16T13:31:53.782Z,3.20
2023-03-16T13:34:23.428Z,3.30
2023-03-16T13:36:58.772Z,3.70
2023-03-16T13:39:29.187Z,3.10
2023-03-16T13:42:25.144Z,3.40
2023-03-16T13:44:56.697Z,3.10
2023-03-16T13:47:27.536Z,2.70
2023-03-16T13:49:58.998Z,2.90
2023-03-16T13:52:31.091Z,2.40
2023-03-16T13:55:03.548Z,2.60
2023-03-16T13:57:36.806Z,3.70
2023-03-16T14:00:18.433Z,3.50
2023-03-16T14:02:48.909Z,4.40
2023-03-16T14:05:37.924Z,3.80
2023-03-16T14:08:15.419Z,3.90
2023-03-16T14:10:45.168Z,4.00
2023-03-16T14:13:38.216Z,4.50
2023-03-16T14:16:13.845Z,4.50
2023-03-16T14:18:48.176Z,4.90
2023-03-16T14:21:25.846Z,5.10
2023-03-16T14:23:57.381Z,4.90
2023-03-16T14:26:25.212Z,4.90
2023-03-16T14:29:10.902Z,4.60
2023-03-16T14:31:40.897Z,4.90
2023-03-16T14:34:32.512Z,5.00
2023-03-16T14:37:09.383Z,4.50
2023-03-16T14:39:37.774Z,4.70
2023-03-16T14:42:12.248Z,5.10
2023-03-16T14:44:40.454Z,5.00
2023-03-16T14:47:08.368Z,4.50
2023-03-16T14:49:37.977Z,4.80
2023-03-16T14:52:17.412Z,4.80
2023-03-16T14:54:45.027Z,5.00
2023-03-16T14:57:16.836Z,4.90
2023-03-16T14:59:44.468Z,4.60
2023-03-16T15:02:27.630Z,4.10
2023-03-16T15:04:56.854Z,4.10
2023-03-16T15:07:29.672Z,4.80
2023-03-16T15:10:06.206Z,5.00
2023-03-16T15:12:34.836Z,7.10
2023-03-16T15:15:16.110Z,4.60
2023-03-16T15:17:45.550Z,11.10
2023-03-16T15:20:15.571Z,4.60
2023-03-16T15:22:43.988Z,4.30
2023-03-16T15:25:24.105Z,3.70
2023-03-16T15:27:52.933Z,4.60
2023-03-16T15:30:25.992Z,3.70
2023-03-16T15:32:53.720Z,3.80
2023-03-16T15:35:21.446Z,3.40
2023-03-16T15:37:49.084Z,4.90
2023-03-16T15:40:19.884Z,3.50
2023-03-16T15:42:47.651Z,4.70
2023-03-16T15:45:18.621Z,5.00
2023-03-16T15:47:51.851Z,3.30
2023-03-16T15:50:21.745Z,3.50
2023-03-16T15:53:00.245Z,19.40
2023-03-16T15:55:40.943Z,2.40
2023-03-16T15:58:16.375Z,2.20
2023-03-16T16:00:44.308Z,2.30
2023-03-16T16:03:13.061Z,2.40
2023-03-16T16:05:40.794Z,47.90
2023-03-16T16:08:08.790Z,77.60
2023-03-16T16:10:36.695Z,24.60
2023-03-16T16:13:04.300Z,45.20
2023-03-16T16:15:35.487Z,38.90
2023-03-16T16:18:26.509Z,7.70
2023-03-16T16:20:55.158Z,3.90
2023-03-16T16:23:23.104Z,3.00
2023-03-16T16:25:54.588Z,2.40
2023-03-16T16:28:24.949Z,2.40
2023-03-16T16:30:53.209Z,2.30
2023-03-16T16:33:27.993Z,2.20
2023-03-16T16:36:00.585Z,2.50
2023-03-16T16:38:29.318Z,2.00
2023-03-16T16:41:00.565Z,2.50
2023-03-16T16:43:40.381Z,3.00
2023-03-16T16:46:17.321Z,3.40
2023-03-16T16:48:50.583Z,4.20
2023-03-16T16:51:21.522Z,5.40
2023-03-16T16:53:50.947Z,5.70
2023-03-16T16:56:23.249Z,12.50
2023-03-16T16:58:51.386Z,9.20
2023-03-16T17:01:35.255Z,31.10
2023-03-16T17:04:03.777Z,22.50
2023-03-16T17:06:31.561Z,33.90
2023-03-16T17:08:59.150Z,31.60
2023-03-16T17:11:29.781Z,14.30
2023-03-16T17:14:02.204Z,15.90
2023-03-16T17:16:32.089Z,25.90
2023-03-16T17:18:59.816Z,28.80
2023-03-16T17:21:29.988Z,26.10
2023-03-16T17:23:58.388Z,15.60
2023-03-16T17:26:31.107Z,10.60
2023-03-16T17:29:10.955Z,8.70
2023-03-16T17:31:41.134Z,11.60
2023-03-16T17:34:28.865Z,12.00
2023-03-16T17:36:56.779Z,9.80
2023-03-16T17:39:27.046Z,11.70
2023-03-16T17:41:56.698Z,57.00
2023-03-16T17:44:25.937Z,66.10
2023-03-16T17:46:54.402Z,57.90
2023-03-16T17:49:24.216Z,49.20
2023-03-16T17:51:52.053Z,34.30
2023-03-16T17:54:19.671Z,33.40
2023-03-16T17:56:51.744Z,46.70
2023-03-16T17:59:21.595Z,31.50
2023-03-16T18:01:49.481Z,36.20
2023-03-16T18:04:19.613Z,34.00
2023-03-16T18:06:48.136Z,30.40
2023-03-16T18:09:17.852Z,22.40
2023-03-16T18:11:47.904Z,22.90
2023-03-16T18:14:24.619Z,38.50
2023-03-16T18:16:52.633Z,61.60
2023-03-16T18:19:24.558Z,42.30
2023-03-16T18:21:53.604Z,33.30
2023-03-16T18:24:25.462Z,22.70
2023-03-16T18:26:54.003Z,29.80
2023-03-16T18:29:22.366Z,21.00
2023-03-16T18:31:52.943Z,19.80
2023-03-16T18:34:23.873Z,22.50
2023-03-16T18:36:53.486Z,24.70
2023-03-16T18:39:22.092Z,22.60
2023-03-16T18:41:50.990Z,25.00
2023-03-16T18:44:21.600Z,62.60
2023-03-16T18:46:50.696Z,76.40
2023-03-16T18:49:32.949Z,67.60
2023-03-16T18:52:00.923Z,39.40
2023-03-16T18:54:31.333Z,27.60
2023-03-16T18:57:00.246Z,20.40
2023-03-16T18:59:28.010Z,16.50
2023-03-16T19:01:58.013Z,17.90
2023-03-16T19:04:29.234Z,22.20
2023-03-16T19:06:57.380Z,24.40
2023-03-16T19:09:30.074Z,25.40
2023-03-16T19:11:58.458Z,25.50
2023-03-16T19:14:34.560Z,30.00
2023-03-16T19:17:02.660Z,36.80
2023-03-16T19:19:30.261Z,35.40
2023-03-16T19:22:16.817Z,35.30
2023-03-16T19:24:46.253Z,32.00
2023-03-16T19:27:23.008Z,37.40
2023-03-16T19:29:52.324Z,32.80
2023-03-16T19:32:21.391Z,31.80
2023-03-16T19:34:49.584Z,29.40
2023-03-16T19:37:19.697Z,26.30
2023-03-16T19:39:47.751Z,25.30
2023-03-16T19:42:21.626Z,26.50
2023-03-16T19:44:50.353Z,26.60
2023-03-16T19:47:27.320Z,24.00
2023-03-16T19:49:55.976Z,23.00
2023-03-16T19:52:23.577Z,23.50
2023-03-16T19:54:51.743Z,21.10
2023-03-16T19:57:20.004Z,19.70
2023-03-16T19:59:55.490Z,20.20
2023-03-16T20:02:38.888Z,21.30
2023-03-16T20:05:07.770Z,22.30
2023-03-16T20:07:38.170Z,19.60
2023-03-16T20:10:06.771Z,17.10
2023-03-16T20:12:37.000Z,17.70
2023-03-16T20:15:05.037Z,16.80
2023-03-16T20:17:33.297Z,18.00
2023-03-16T20:20:01.223Z,16.30
2023-03-16T20:22:29.196Z,15.60
2023-03-16T20:24:57.956Z,13.50
2023-03-16T20:27:27.651Z,13.80
2023-03-16T20:29:55.777Z,15.30
2023-03-16T20:32:26.378Z,13.90
2023-03-16T20:34:54.155Z,13.10
2023-03-16T20:37:29.891Z,13.10
2023-03-16T20:39:58.966Z,13.20
2023-03-16T20:42:31.885Z,13.50
2023-03-16T20:45:00.238Z,12.70
2023-03-16T20:47:28.135Z,11.70
2023-03-16T20:49:57.434Z,14.50
2023-03-16T20:52:30.722Z,17.80
2023-03-16T20:54:59.052Z,14.60
2023-03-16T20:57:27.649Z,13.80
2023-03-16T20:59:55.484Z,13.40
2023-03-16T21:02:33.718Z,14.70
2023-03-16T21:05:05.043Z,20.00
2023-03-16T21:07:32.925Z,16.50
2023-03-16T21:10:00.509Z,17.00
2023-03-16T21:12:32.167Z,14.50
2023-03-16T21:15:02.578Z,13.80
2023-03-16T21:17:32.787Z,14.40
2023-03-16T21:20:00.788Z,14.10
2023-03-16T21:22:31.281Z,13.80
2023-03-16T21:24:58.942Z,14.20
2023-03-16T21:27:32.165Z,16.40
2023-03-16T21:30:07.402Z,17.30
2023-03-16T21:32:35.243Z,19.70
2023-03-16T21:35:04.188Z,13.80
2023-03-16T21:37:31.785Z,19.70
2023-03-16T21:40:01.230Z,30.00
2023-03-16T21:42:29.548Z,36.20
2023-03-16T21:44:57.288Z,30.10
2023-03-16T21:47:26.672Z,31.80
2023-03-16T21:49:54.756Z,28.90
2023-03-16T21:52:28.096Z,23.90
2023-03-16T21:54:57.030Z,19.40
2023-03-16T21:57:24.640Z,23.30
2023-03-16T21:59:52.241Z,21.80
2023-03-16T22:02:23.441Z,27.20
2023-03-16T22:04:52.027Z,26.40
2023-03-16T22:07:20.825Z,28.30
2023-03-16T22:09:48.429Z,19.00
2023-03-16T22:12:18.335Z,21.20
2023-03-16T22:14:45.933Z,18.00
2023-03-16T22:17:22.170Z,16.20
2023-03-16T22:19:49.826Z,15.10
2023-03-16T22:22:17.506Z,13.00
2023-03-16T22:24:46.063Z,10.90
2023-03-16T22:27:21.563Z,12.20
2023-03-16T22:29:51.031Z,12.30
2023-03-16T22:32:21.749Z,10.40
2023-03-16T22:34:52.436Z,15.10
2023-03-16T22:37:23.130Z,20.60
2023-03-16T22:39:51.646Z,21.00
2023-03-16T22:42:19.258Z,8.20
2023-03-16T22:44:46.946Z,9.40
2023-03-16T22:47:26.624Z,9.60
2023-03-16T22:49:54.539Z,10.00
2023-03-16T22:52:32.495Z,9.20
2023-03-16T22:55:01.353Z,8.60
2023-03-16T22:57:29.565Z,9.10
2023-03-16T22:59:57.625Z,13.10
2023-03-16T23:02:26.171Z,12.90
2023-03-16T23:04:54.032Z,9.90
2023-03-16T23:07:21.770Z,10.30
2023-03-16T23:09:49.387Z,13.20
2023-03-16T23:12:21.213Z,16.30
2023-03-16T23:14:49.315Z,13.20
2023-03-16T23:17:19.246Z,15.60
2023-03-16T23:19:48.023Z,14.90
2023-03-16T23:22:16.231Z,15.00
2023-03-16T23:24:43.999Z,16.10
2023-03-16T23:27:17.989Z,18.00
2023-03-16T23:29:46.055Z,20.20
2023-03-16T23:32:15.365Z,22.30
2023-03-16T23:34:42.968Z,22.40
2023-03-16T23:37:11.421Z,18.30
2023-03-16T23:39:39.922Z,20.80
2023-03-16T23:42:07.813Z,23.60
2023-03-16T23:44:36.047Z,24.60
2023-03-16T23:47:03.852Z,25.20
2023-03-16T23:49:33.840Z,23.30
2023-03-16T23:52:02.112Z,23.50
2023-03-16T23:54:31.138Z,27.10
2023-03-16T23:56:58.908Z,27.20
2023-03-16T23:59:27.855Z,27.30
